createdAt,value
2023-02-11T00:00:02.720Z,964.57
2023-02-11T00:00:12.706Z,964.58
2023-02-11T00:00:22.703Z,964.60
2023-02-11T00:00:32.704Z,964.60
2023-02-11T00:00:42.758Z,964.60
2023-02-11T00:00:52.800Z,964.59
2023-02-11T00:01:02.711Z,964.59
2023-02-11T00:01:12.709Z,964.59
2023-02-11T00:01:22.709Z,964.59
2023-02-11T00:01:32.708Z,964.59
2023-02-11T00:01:42.718Z,964.58
2023-02-11T00:01:52.729Z,964.56
2023-02-11T00:02:02.793Z,964.56
2023-02-11T00:02:12.752Z,964.57
2023-02-11T00:02:22.740Z,964.57
2023-02-11T00:02:32.758Z,964.57
2023-02-11T00:02:42.713Z,964.57
2023-02-11T00:02:52.717Z,964.56
2023-02-11T00:03:02.774Z,964.55
2023-02-11T00:03:12.762Z,964.55
2023-02-11T00:03:22.757Z,964.54
2023-02-11T00:03:32.846Z,964.53
2023-02-11T00:03:42.825Z,964.54
2023-02-11T00:03:52.728Z,964.53
2023-02-11T00:04:02.726Z,964.53
2023-02-11T00:04:12.727Z,964.52
2023-02-11T00:04:22.722Z,964.52
2023-02-11T00:04:32.725Z,964.53
2023-02-11T00:04:42.726Z,964.52
2023-02-11T00:04:52.725Z,964.51
2023-02-11T00:05:02.729Z,964.50
2023-02-11T00:05:12.726Z,964.51
2023-02-11T00:05:22.730Z,964.49
2023-02-11T00:05:32.727Z,964.51
2023-02-11T00:05:42.732Z,964.53
2023-02-11T00:05:52.725Z,964.53
2023-02-11T00:06:02.731Z,964.55
2023-02-11T00:06:12.741Z,964.56
2023-02-11T00:06:22.741Z,964.56
2023-02-11T00:06:32.736Z,964.58
2023-02-11T00:06:42.739Z,964.58
2023-02-11T00:06:52.738Z,964.58
2023-02-11T00:07:02.740Z,964.59
2023-02-11T00:07:12.755Z,964.58
2023-02-11T00:07:22.738Z,964.54
2023-02-11T00:07:32.741Z,964.53
2023-02-11T00:07:42.740Z,964.53
2023-02-11T00:07:52.741Z,964.53
2023-02-11T00:08:02.745Z,964.51
2023-02-11T00:08:12.749Z,964.51
2023-02-11T00:08:22.742Z,964.52
2023-02-11T00:08:32.761Z,964.52
2023-02-11T00:08:42.748Z,964.52
2023-02-11T00:08:52.750Z,964.49
2023-02-11T00:09:02.760Z,964.48
2023-02-11T00:09:12.750Z,964.47
2023-02-11T00:09:22.754Z,964.47
2023-02-11T00:09:32.752Z,964.46
2023-02-11T00:09:42.751Z,964.45
2023-02-11T00:09:52.756Z,964.44
2023-02-11T00:10:02.780Z,964.45
2023-02-11T00:10:12.767Z,964.45
2023-02-11T00:10:22.754Z,964.45
2023-02-11T00:10:32.765Z,964.43
2023-02-11T00:10:42.758Z,964.40
2023-02-11T00:10:52.760Z,964.39
2023-02-11T00:11:02.755Z,964.39
2023-02-11T00:11:12.761Z,964.39
2023-02-11T00:11:22.760Z,964.39
2023-02-11T00:11:32.758Z,964.39
2023-02-11T00:11:42.777Z,964.38
2023-02-11T00:11:52.767Z,964.37
2023-02-11T00:12:02.760Z,964.36
2023-02-11T00:12:12.766Z,964.34
2023-02-11T00:12:22.764Z,964.33
2023-02-11T00:12:32.765Z,964.33
2023-02-11T00:12:42.781Z,964.31
2023-02-11T00:12:52.791Z,964.29
2023-02-11T00:13:02.770Z,964.28
2023-02-11T00:13:12.769Z,964.28
2023-02-11T00:13:22.773Z,964.29
2023-02-11T00:13:32.796Z,964.30
2023-02-11T00:13:42.772Z,964.31
2023-02-11T00:13:52.779Z,964.32
2023-02-11T00:14:02.770Z,964.32
2023-02-11T00:14:12.770Z,964.34
2023-02-11T00:14:22.770Z,964.35
2023-02-11T00:14:32.776Z,964.33
2023-02-11T00:14:42.776Z,964.33
2023-02-11T00:14:52.790Z,964.31
2023-02-11T00:15:02.785Z,964.30
2023-02-11T00:15:12.776Z,964.32
2023-02-11T00:15:22.780Z,964.33
2023-02-11T00:15:32.781Z,964.34
2023-02-11T00:15:42.781Z,964.34
2023-02-11T00:15:52.856Z,964.33
2023-02-11T00:16:02.814Z,964.32
2023-02-11T00:16:12.861Z,964.31
2023-02-11T00:16:22.967Z,964.32
2023-02-11T00:16:32.871Z,964.32
2023-02-11T00:16:42.892Z,964.31
2023-02-11T00:16:52.849Z,964.31
2023-02-11T00:17:02.858Z,964.31
2023-02-11T00:17:12.785Z,964.28
2023-02-11T00:17:22.789Z,964.27
2023-02-11T00:17:32.787Z,964.27
2023-02-11T00:17:42.788Z,964.25
2023-02-11T00:17:52.797Z,964.24
2023-02-11T00:18:02.789Z,964.23
2023-02-11T00:18:12.791Z,964.23
2023-02-11T00:18:22.795Z,964.25
2023-02-11T00:18:32.788Z,964.25
2023-02-11T00:18:42.793Z,964.23
2023-02-11T00:18:52.801Z,964.17
2023-02-11T00:19:02.808Z,964.15
2023-02-11T00:19:12.797Z,964.16
2023-02-11T00:19:22.796Z,964.16
2023-02-11T00:19:32.822Z,964.16
2023-02-11T00:19:42.800Z,964.15
2023-02-11T00:19:52.822Z,964.14
2023-02-11T00:20:02.804Z,964.13
2023-02-11T00:20:12.799Z,964.14
2023-02-11T00:20:22.799Z,964.15
2023-02-11T00:20:32.811Z,964.14
2023-02-11T00:20:42.806Z,964.13
2023-02-11T00:20:52.800Z,964.14
2023-02-11T00:21:02.801Z,964.14
2023-02-11T00:21:12.803Z,964.14
2023-02-11T00:21:22.805Z,964.17
2023-02-11T00:21:32.808Z,964.18
2023-02-11T00:21:42.807Z,964.17
2023-02-11T00:21:52.806Z,964.17
2023-02-11T00:22:02.810Z,964.16
2023-02-11T00:22:12.911Z,964.16
2023-02-11T00:22:22.834Z,964.16
2023-02-11T00:22:32.814Z,964.17
2023-02-11T00:22:42.816Z,964.16
2023-02-11T00:22:52.810Z,964.16
2023-02-11T00:23:02.812Z,964.16
2023-02-11T00:23:12.817Z,964.18
2023-02-11T00:23:22.797Z,964.17
2023-02-11T00:23:32.838Z,964.16
2023-02-11T00:23:42.831Z,964.15
2023-02-11T00:23:52.825Z,964.14
2023-02-11T00:24:02.824Z,964.14
2023-02-11T00:24:12.816Z,964.12
2023-02-11T00:24:22.816Z,964.11
2023-02-11T00:24:32.821Z,964.12
2023-02-11T00:24:42.833Z,964.13
2023-02-11T00:24:52.819Z,964.13
2023-02-11T00:25:02.821Z,964.12
2023-02-11T00:25:12.836Z,964.11
2023-02-11T00:25:22.829Z,964.13
2023-02-11T00:25:32.822Z,964.14
2023-02-11T00:25:42.852Z,964.13
2023-02-11T00:25:53.091Z,964.12
2023-02-11T00:26:02.826Z,964.09
2023-02-11T00:26:12.827Z,964.09
2023-02-11T00:26:22.829Z,964.09
2023-02-11T00:26:32.834Z,964.09
2023-02-11T00:26:42.828Z,964.10
2023-02-11T00:26:52.825Z,964.10
2023-02-11T00:27:02.829Z,964.08
2023-02-11T00:27:12.830Z,964.09
2023-02-11T00:27:22.825Z,964.07
2023-02-11T00:27:32.828Z,964.07
2023-02-11T00:27:42.841Z,964.09
2023-02-11T00:27:52.831Z,964.08
2023-02-11T00:28:02.876Z,964.09
2023-02-11T00:28:12.928Z,964.09
2023-02-11T00:28:22.844Z,964.08
2023-02-11T00:28:32.871Z,964.08
2023-02-11T00:28:42.834Z,964.07
2023-02-11T00:28:52.836Z,964.06
2023-02-11T00:29:02.837Z,964.07
2023-02-11T00:29:12.836Z,964.05
2023-02-11T00:29:22.837Z,964.06
2023-02-11T00:29:32.839Z,964.07
2023-02-11T00:29:42.843Z,964.07
2023-02-11T00:29:52.840Z,964.06
2023-02-11T00:30:02.855Z,964.06
2023-02-11T00:30:12.843Z,964.08
2023-02-11T00:30:22.844Z,964.10
2023-02-11T00:30:33.070Z,964.14
2023-02-11T00:30:42.974Z,964.15
2023-02-11T00:30:52.962Z,964.14
2023-02-11T00:31:02.956Z,964.16
2023-02-11T00:31:13.124Z,964.15
2023-02-11T00:31:23.003Z,964.14
2023-02-11T00:31:32.999Z,964.14
2023-02-11T00:31:43.004Z,964.13
2023-02-11T00:31:52.958Z,964.15
2023-02-11T00:32:02.892Z,964.17
2023-02-11T00:32:12.849Z,964.18
2023-02-11T00:32:22.848Z,964.17
2023-02-11T00:32:32.854Z,964.15
2023-02-11T00:32:42.854Z,964.13
2023-02-11T00:32:52.851Z,964.13
2023-02-11T00:33:02.852Z,964.13
2023-02-11T00:33:12.854Z,964.12
2023-02-11T00:33:22.849Z,964.12
2023-02-11T00:33:32.851Z,964.13
2023-02-11T00:33:42.857Z,964.12
2023-02-11T00:33:52.871Z,964.12
2023-02-11T00:34:02.864Z,964.11
2023-02-11T00:34:12.855Z,964.12
2023-02-11T00:34:22.853Z,964.10
2023-02-11T00:34:32.876Z,964.11
2023-02-11T00:34:42.868Z,964.11
2023-02-11T00:34:52.859Z,964.13
2023-02-11T00:35:02.860Z,964.13
2023-02-11T00:35:12.871Z,964.13
2023-02-11T00:35:22.860Z,964.16
2023-02-11T00:35:32.865Z,964.17
2023-02-11T00:35:42.865Z,964.18
2023-02-11T00:35:53.071Z,964.21
2023-02-11T00:36:02.867Z,964.21
2023-02-11T00:36:12.867Z,964.21
2023-02-11T00:36:22.861Z,964.22
2023-02-11T00:36:32.864Z,964.22
2023-02-11T00:36:42.867Z,964.21
2023-02-11T00:36:52.866Z,964.21
2023-02-11T00:37:02.860Z,964.21
2023-02-11T00:37:12.870Z,964.22
2023-02-11T00:37:22.867Z,964.22
2023-02-11T00:37:32.881Z,964.22
2023-02-11T00:37:42.875Z,964.22
2023-02-11T00:37:52.873Z,964.22
2023-02-11T00:38:02.876Z,964.22
2023-02-11T00:38:12.877Z,964.25
2023-02-11T00:38:22.873Z,964.26
2023-02-11T00:38:32.874Z,964.25
2023-02-11T00:38:42.873Z,964.25
2023-02-11T00:38:52.884Z,964.25
2023-02-11T00:39:02.880Z,964.26
2023-02-11T00:39:12.879Z,964.25
2023-02-11T00:39:22.878Z,964.28
2023-02-11T00:39:32.908Z,964.25
2023-02-11T00:39:42.877Z,964.22
2023-02-11T00:39:52.900Z,964.23
2023-02-11T00:40:05.040Z,964.24
2023-02-11T00:40:12.882Z,964.25
2023-02-11T00:40:22.886Z,964.24
2023-02-11T00:40:32.885Z,964.23
2023-02-11T00:40:42.884Z,964.22
2023-02-11T00:40:52.883Z,964.20
2023-02-11T00:41:02.888Z,964.20
2023-02-11T00:41:12.888Z,964.21
2023-02-11T00:41:22.885Z,964.22
2023-02-11T00:41:32.911Z,964.22
2023-02-11T00:41:42.885Z,964.24
2023-02-11T00:41:52.893Z,964.24
2023-02-11T00:42:02.899Z,964.25
2023-02-11T00:42:12.888Z,964.25
2023-02-11T00:42:22.892Z,964.25
2023-02-11T00:42:32.899Z,964.24
2023-02-11T00:42:42.891Z,964.24
2023-02-11T00:42:52.891Z,964.24
2023-02-11T00:43:02.893Z,964.24
2023-02-11T00:43:12.890Z,964.24
2023-02-11T00:43:22.891Z,964.23
2023-02-11T00:43:32.893Z,964.24
2023-02-11T00:43:42.892Z,964.24
2023-02-11T00:43:52.891Z,964.24
2023-02-11T00:44:02.901Z,964.24
2023-02-11T00:44:12.900Z,964.24
2023-02-11T00:44:22.899Z,964.24
2023-02-11T00:44:32.901Z,964.23
2023-02-11T00:44:42.899Z,964.23
2023-02-11T00:44:52.903Z,964.23
2023-02-11T00:45:02.904Z,964.23
2023-02-11T00:45:12.883Z,964.24
2023-02-11T00:45:22.899Z,964.22
2023-02-11T00:45:32.899Z,964.22
2023-02-11T00:45:42.901Z,964.26
2023-02-11T00:45:53.191Z,964.29
2023-02-11T00:46:02.943Z,964.29
2023-02-11T00:46:12.995Z,964.30
2023-02-11T00:46:22.942Z,964.29
2023-02-11T00:46:32.958Z,964.28
2023-02-11T00:46:42.969Z,964.27
2023-02-11T00:46:52.908Z,964.27
2023-02-11T00:47:02.916Z,964.27
2023-02-11T00:47:12.909Z,964.28
2023-02-11T00:47:22.905Z,964.27
2023-02-11T00:47:32.912Z,964.26
2023-02-11T00:47:42.908Z,964.26
2023-02-11T00:47:52.919Z,964.26
2023-02-11T00:48:02.907Z,964.25
2023-02-11T00:48:12.908Z,964.24
2023-02-11T00:48:22.908Z,964.22
2023-02-11T00:48:32.908Z,964.22
2023-02-11T00:48:42.895Z,964.22
2023-02-11T00:48:52.909Z,964.21
2023-02-11T00:49:02.916Z,964.22
2023-02-11T00:49:12.910Z,964.21
2023-02-11T00:49:22.912Z,964.23
2023-02-11T00:49:32.916Z,964.24
2023-02-11T00:49:42.919Z,964.23
2023-02-11T00:49:52.911Z,964.22
2023-02-11T00:50:02.919Z,964.22
2023-02-11T00:50:12.919Z,964.23
2023-02-11T00:50:22.919Z,964.23
2023-02-11T00:50:32.919Z,964.23
2023-02-11T00:50:42.921Z,964.22
2023-02-11T00:50:52.918Z,964.22
2023-02-11T00:51:02.920Z,964.22
2023-02-11T00:51:12.921Z,964.21
2023-02-11T00:51:22.927Z,964.20
2023-02-11T00:51:32.919Z,964.19
2023-02-11T00:51:42.924Z,964.18
2023-02-11T00:51:52.926Z,964.18
2023-02-11T00:52:02.932Z,964.16
2023-02-11T00:52:12.934Z,964.15
2023-02-11T00:52:22.926Z,964.12
2023-02-11T00:52:32.925Z,964.09
2023-02-11T00:52:42.924Z,964.10
2023-02-11T00:52:52.925Z,964.10
2023-02-11T00:53:02.946Z,964.08
2023-02-11T00:53:12.935Z,964.06
2023-02-11T00:53:22.930Z,964.05
2023-02-11T00:53:32.932Z,964.04
2023-02-11T00:53:42.933Z,964.03
2023-02-11T00:53:52.933Z,964.01
2023-02-11T00:54:02.936Z,964.02
2023-02-11T00:54:12.938Z,964.00
2023-02-11T00:54:22.935Z,963.97
2023-02-11T00:54:32.933Z,963.96
2023-02-11T00:54:42.939Z,963.95
2023-02-11T00:54:52.953Z,963.96
2023-02-11T00:55:02.945Z,963.97
2023-02-11T00:55:12.939Z,963.98
2023-02-11T00:55:22.940Z,963.97
2023-02-11T00:55:32.939Z,963.96
2023-02-11T00:55:42.946Z,963.95
2023-02-11T00:55:52.946Z,963.94
2023-02-11T00:56:02.942Z,963.93
2023-02-11T00:56:12.953Z,963.93
2023-02-11T00:56:22.951Z,963.92
2023-02-11T00:56:32.947Z,963.92
2023-02-11T00:56:42.960Z,963.92
2023-02-11T00:56:52.948Z,963.93
2023-02-11T00:57:02.950Z,963.93
2023-02-11T00:57:12.950Z,963.94
2023-02-11T00:57:22.956Z,963.94
2023-02-11T00:57:32.953Z,963.91
2023-02-11T00:57:42.955Z,963.91
2023-02-11T00:57:52.954Z,963.88
2023-02-11T00:58:02.954Z,963.87
2023-02-11T00:58:12.953Z,963.86
2023-02-11T00:58:22.961Z,963.87
2023-02-11T00:58:32.956Z,963.86
2023-02-11T00:58:42.956Z,963.85
2023-02-11T00:58:52.962Z,963.86
2023-02-11T00:59:02.955Z,963.85
2023-02-11T00:59:12.959Z,963.87
2023-02-11T00:59:22.972Z,963.87
2023-02-11T00:59:32.990Z,963.87
2023-02-11T00:59:42.979Z,963.86
2023-02-11T00:59:52.969Z,963.85
2023-02-11T01:00:02.994Z,963.86
2023-02-11T01:00:12.969Z,963.87
2023-02-11T01:00:22.964Z,963.86
2023-02-11T01:00:32.972Z,963.87
2023-02-11T01:00:42.971Z,963.89
2023-02-11T01:00:52.972Z,963.90
2023-02-11T01:01:03.010Z,963.91
2023-02-11T01:01:13.020Z,963.91
2023-02-11T01:01:23.014Z,963.90
2023-02-11T01:01:33.066Z,963.90
2023-02-11T01:01:43.072Z,963.89
2023-02-11T01:01:52.976Z,963.89
2023-02-11T01:02:02.978Z,963.90
2023-02-11T01:02:12.985Z,963.89
2023-02-11T01:02:22.982Z,963.89
2023-02-11T01:02:32.984Z,963.89
2023-02-11T01:02:42.981Z,963.88
2023-02-11T01:02:52.980Z,963.90
2023-02-11T01:03:02.986Z,963.90
2023-02-11T01:03:12.991Z,963.87
2023-02-11T01:03:22.984Z,963.86
2023-02-11T01:03:32.987Z,963.85
2023-02-11T01:03:42.987Z,963.85
2023-02-11T01:03:52.993Z,963.87
2023-02-11T01:04:02.992Z,963.89
2023-02-11T01:04:12.986Z,963.90
2023-02-11T01:04:22.973Z,963.90
2023-02-11T01:04:32.992Z,963.90
2023-02-11T01:04:43.000Z,963.90
2023-02-11T01:04:53.054Z,963.90
2023-02-11T01:05:03.060Z,963.90
2023-02-11T01:05:13.017Z,963.94
2023-02-11T01:05:23.030Z,963.97
2023-02-11T01:05:33.028Z,963.99
2023-02-11T01:05:42.996Z,963.99
2023-02-11T01:05:53.109Z,963.99
2023-02-11T01:06:02.996Z,963.98
2023-02-11T01:06:13.000Z,963.98
2023-02-11T01:06:23.000Z,963.98
2023-02-11T01:06:33.010Z,963.99
2023-02-11T01:06:43.001Z,964.01
2023-02-11T01:06:53.002Z,964.02
2023-02-11T01:07:03.012Z,964.03
2023-02-11T01:07:13.011Z,964.02
2023-02-11T01:07:23.003Z,964.04
2023-02-11T01:07:33.007Z,964.06
2023-02-11T01:07:43.002Z,964.06
2023-02-11T01:07:53.006Z,964.06
2023-02-11T01:08:03.019Z,964.06
2023-02-11T01:08:13.005Z,964.06
2023-02-11T01:08:23.016Z,964.05
2023-02-11T01:08:33.006Z,964.05
2023-02-11T01:08:43.009Z,964.05
2023-02-11T01:08:53.019Z,964.05
2023-02-11T01:09:03.008Z,964.05
2023-02-11T01:09:13.010Z,964.07
2023-02-11T01:09:23.012Z,964.07
2023-02-11T01:09:33.008Z,964.07
2023-02-11T01:09:43.023Z,964.09
2023-02-11T01:09:53.014Z,964.10
2023-02-11T01:10:03.018Z,964.08
2023-02-11T01:10:13.015Z,964.06
2023-02-11T01:10:23.018Z,964.06
2023-02-11T01:10:33.029Z,964.08
2023-02-11T01:10:43.012Z,964.09
2023-02-11T01:10:53.016Z,964.10
2023-02-11T01:11:03.018Z,964.12
2023-02-11T01:11:13.026Z,964.13
2023-02-11T01:11:23.018Z,964.13
2023-02-11T01:11:33.024Z,964.15
2023-02-11T01:11:43.025Z,964.18
2023-02-11T01:11:53.020Z,964.19
2023-02-11T01:12:03.020Z,964.20
2023-02-11T01:12:13.022Z,964.21
2023-02-11T01:12:23.021Z,964.21
2023-02-11T01:12:35.263Z,964.18
2023-02-11T01:12:43.026Z,964.18
2023-02-11T01:12:53.025Z,964.19
2023-02-11T01:13:03.027Z,964.19
2023-02-11T01:13:13.023Z,964.19
2023-02-11T01:13:23.029Z,964.19
2023-02-11T01:13:33.030Z,964.19
2023-02-11T01:13:43.048Z,964.18
2023-02-11T01:13:53.029Z,964.18
2023-02-11T01:14:03.026Z,964.18
2023-02-11T01:14:13.028Z,964.17
2023-02-11T01:14:23.029Z,964.16
2023-02-11T01:14:33.036Z,964.17
2023-02-11T01:14:43.049Z,964.18
2023-02-11T01:14:53.036Z,964.16
2023-02-11T01:15:03.072Z,964.16
2023-02-11T01:15:13.036Z,964.15
2023-02-11T01:15:23.036Z,964.15
2023-02-11T01:15:33.064Z,964.16
2023-02-11T01:15:43.083Z,964.17
2023-02-11T01:15:53.358Z,964.18
2023-02-11T01:16:03.134Z,964.18
2023-02-11T01:16:13.108Z,964.17
2023-02-11T01:16:23.038Z,964.16
2023-02-11T01:16:33.043Z,964.18
2023-02-11T01:16:43.041Z,964.20
2023-02-11T01:16:53.044Z,964.19
2023-02-11T01:17:03.040Z,964.18
2023-02-11T01:17:13.029Z,964.17
2023-02-11T01:17:23.043Z,964.18
2023-02-11T01:17:33.044Z,964.19
2023-02-11T01:17:43.045Z,964.20
2023-02-11T01:17:53.047Z,964.21
2023-02-11T01:18:03.046Z,964.21
2023-02-11T01:18:13.046Z,964.20
2023-02-11T01:18:23.046Z,964.19
2023-02-11T01:18:33.049Z,964.20
2023-02-11T01:18:43.049Z,964.20
2023-02-11T01:18:53.051Z,964.19
2023-02-11T01:19:03.051Z,964.19
2023-02-11T01:19:13.051Z,964.18
2023-02-11T01:19:23.052Z,964.16
2023-02-11T01:19:33.059Z,964.16
2023-02-11T01:19:43.065Z,964.16
2023-02-11T01:19:53.053Z,964.16
2023-02-11T01:20:03.057Z,964.16
2023-02-11T01:20:13.053Z,964.15
2023-02-11T01:20:23.053Z,964.16
2023-02-11T01:20:33.053Z,964.16
2023-02-11T01:20:43.062Z,964.14
2023-02-11T01:20:53.058Z,964.14
2023-02-11T01:21:03.061Z,964.13
2023-02-11T01:21:13.082Z,964.13
2023-02-11T01:21:23.060Z,964.13
2023-02-11T01:21:33.061Z,964.13
2023-02-11T01:21:43.048Z,964.13
2023-02-11T01:21:53.062Z,964.12
2023-02-11T01:22:03.062Z,964.13
2023-02-11T01:22:13.066Z,964.14
2023-02-11T01:22:23.059Z,964.13
2023-02-11T01:22:33.062Z,964.13
2023-02-11T01:22:43.062Z,964.14
2023-02-11T01:22:53.063Z,964.15
2023-02-11T01:23:03.062Z,964.13
2023-02-11T01:23:13.068Z,964.13
2023-02-11T01:23:23.062Z,964.13
2023-02-11T01:23:33.065Z,964.13
2023-02-11T01:23:43.074Z,964.13
2023-02-11T01:23:53.077Z,964.12
2023-02-11T01:24:03.068Z,964.11
2023-02-11T01:24:13.073Z,964.10
2023-02-11T01:24:23.084Z,964.10
2023-02-11T01:24:33.076Z,964.09
2023-02-11T01:24:43.090Z,964.08
2023-02-11T01:24:53.077Z,964.07
2023-02-11T01:25:03.081Z,964.07
2023-02-11T01:25:13.077Z,964.06
2023-02-11T01:25:23.077Z,964.03
2023-02-11T01:25:33.087Z,964.02
2023-02-11T01:25:43.084Z,964.01
2023-02-11T01:25:53.321Z,964.01
2023-02-11T01:26:03.087Z,964.02
2023-02-11T01:26:13.085Z,964.02
2023-02-11T01:26:23.079Z,964.01
2023-02-11T01:26:33.083Z,964.00
2023-02-11T01:26:43.084Z,963.98
2023-02-11T01:26:53.083Z,963.98
2023-02-11T01:27:03.091Z,963.98
2023-02-11T01:27:13.250Z,963.96
2023-02-11T01:27:23.086Z,963.93
2023-02-11T01:27:33.090Z,963.92
2023-02-11T01:27:43.089Z,963.93
2023-02-11T01:27:53.091Z,963.94
2023-02-11T01:28:03.149Z,963.93
2023-02-11T01:28:13.121Z,963.93
2023-02-11T01:28:23.200Z,963.91
2023-02-11T01:28:33.148Z,963.90
2023-02-11T01:28:43.105Z,963.90
2023-02-11T01:28:53.076Z,963.90
2023-02-11T01:29:03.091Z,963.91
2023-02-11T01:29:13.092Z,963.93
2023-02-11T01:29:23.107Z,963.95
2023-02-11T01:29:33.105Z,963.95
2023-02-11T01:29:43.109Z,963.94
2023-02-11T01:29:53.103Z,963.95
2023-02-11T01:30:03.108Z,963.95
2023-02-11T01:30:13.088Z,963.95
2023-02-11T01:30:23.098Z,963.95
2023-02-11T01:30:33.097Z,963.96
2023-02-11T01:30:43.108Z,963.97
2023-02-11T01:30:53.166Z,963.96
2023-02-11T01:31:03.153Z,963.96
2023-02-11T01:31:13.150Z,963.97
2023-02-11T01:31:23.156Z,963.98
2023-02-11T01:31:33.235Z,963.99
2023-02-11T01:31:43.162Z,963.99
2023-02-11T01:31:53.137Z,964.00
2023-02-11T01:32:03.140Z,964.01
2023-02-11T01:32:13.158Z,964.02
2023-02-11T01:32:23.108Z,964.01
2023-02-11T01:32:33.113Z,964.02
2023-02-11T01:32:43.115Z,964.01
2023-02-11T01:32:53.117Z,964.01
2023-02-11T01:33:03.113Z,964.02
2023-02-11T01:33:13.115Z,964.02
2023-02-11T01:33:23.113Z,964.03
2023-02-11T01:33:33.115Z,964.02
2023-02-11T01:33:43.126Z,964.03
2023-02-11T01:33:53.113Z,964.04
2023-02-11T01:34:03.118Z,964.04
2023-02-11T01:34:13.122Z,964.05
2023-02-11T01:34:23.120Z,964.05
2023-02-11T01:34:33.119Z,964.05
2023-02-11T01:34:43.153Z,964.05
2023-02-11T01:34:53.118Z,964.06
2023-02-11T01:35:03.127Z,964.06
2023-02-11T01:35:13.120Z,964.06
2023-02-11T01:35:23.126Z,964.06
2023-02-11T01:35:33.122Z,964.05
2023-02-11T01:35:43.124Z,964.05
2023-02-11T01:35:53.470Z,964.05
2023-02-11T01:36:03.144Z,964.06
2023-02-11T01:36:13.134Z,964.07
2023-02-11T01:36:23.129Z,964.08
2023-02-11T01:36:33.131Z,964.09
2023-02-11T01:36:43.129Z,964.10
2023-02-11T01:36:53.131Z,964.10
2023-02-11T01:37:03.132Z,964.09
2023-02-11T01:37:13.130Z,964.07
2023-02-11T01:37:23.134Z,964.06
2023-02-11T01:37:33.132Z,964.06
2023-02-11T01:37:43.135Z,964.06
2023-02-11T01:37:53.139Z,964.06
2023-02-11T01:38:03.122Z,964.06
2023-02-11T01:38:13.136Z,964.06
2023-02-11T01:38:23.156Z,964.07
2023-02-11T01:38:33.143Z,964.08
2023-02-11T01:38:43.143Z,964.09
2023-02-11T01:38:53.140Z,964.09
2023-02-11T01:39:03.143Z,964.09
2023-02-11T01:39:13.145Z,964.09
2023-02-11T01:39:23.146Z,964.08
2023-02-11T01:39:33.147Z,964.05
2023-02-11T01:39:43.144Z,964.03
2023-02-11T01:39:53.174Z,964.04
2023-02-11T01:40:03.153Z,964.06
2023-02-11T01:40:13.152Z,964.07
2023-02-11T01:40:23.148Z,964.07
2023-02-11T01:40:33.156Z,964.08
2023-02-11T01:40:43.151Z,964.11
2023-02-11T01:40:53.149Z,964.12
2023-02-11T01:41:03.161Z,964.13
2023-02-11T01:41:13.156Z,964.13
2023-02-11T01:41:23.151Z,964.12
2023-02-11T01:41:33.155Z,964.11
2023-02-11T01:41:43.154Z,964.11
2023-02-11T01:41:53.162Z,964.10
2023-02-11T01:42:03.167Z,964.10
2023-02-11T01:42:13.159Z,964.10
2023-02-11T01:42:23.159Z,964.10
2023-02-11T01:42:33.160Z,964.10
2023-02-11T01:42:43.165Z,964.09
2023-02-11T01:42:53.163Z,964.09
2023-02-11T01:43:03.161Z,964.10
2023-02-11T01:43:13.165Z,964.09
2023-02-11T01:43:23.149Z,964.08
2023-02-11T01:43:33.169Z,964.06
2023-02-11T01:43:43.186Z,964.04
2023-02-11T01:43:53.165Z,964.01
2023-02-11T01:44:03.167Z,963.99
2023-02-11T01:44:13.166Z,963.99
2023-02-11T01:44:23.165Z,963.98
2023-02-11T01:44:33.178Z,963.98
2023-02-11T01:44:43.186Z,963.98
2023-02-11T01:44:53.175Z,963.97
2023-02-11T01:45:03.172Z,963.95
2023-02-11T01:45:13.171Z,963.96
2023-02-11T01:45:23.180Z,963.96
2023-02-11T01:45:33.173Z,963.95
2023-02-11T01:45:43.176Z,963.93
2023-02-11T01:45:53.352Z,963.92
2023-02-11T01:46:03.191Z,963.91
2023-02-11T01:46:13.194Z,963.91
2023-02-11T01:46:23.234Z,963.91
2023-02-11T01:46:33.282Z,963.91
2023-02-11T01:46:43.221Z,963.90
2023-02-11T01:46:53.195Z,963.89
2023-02-11T01:47:03.175Z,963.89
2023-02-11T01:47:13.182Z,963.90
2023-02-11T01:47:23.180Z,963.91
2023-02-11T01:47:33.174Z,963.91
2023-02-11T01:47:43.176Z,963.91
2023-02-11T01:47:53.181Z,963.91
2023-02-11T01:48:03.186Z,963.92
2023-02-11T01:48:13.183Z,963.91
2023-02-11T01:48:23.184Z,963.93
2023-02-11T01:48:33.179Z,963.94
2023-02-11T01:48:43.181Z,963.96
2023-02-11T01:48:53.254Z,963.98
2023-02-11T01:49:03.253Z,963.99
2023-02-11T01:49:13.211Z,964.00
2023-02-11T01:49:23.224Z,964.02
2023-02-11T01:49:33.266Z,964.04
2023-02-11T01:49:43.194Z,964.05
2023-02-11T01:49:53.183Z,964.04
2023-02-11T01:50:03.207Z,964.04
2023-02-11T01:50:13.189Z,964.05
2023-02-11T01:50:23.185Z,964.05
2023-02-11T01:50:33.186Z,964.03
2023-02-11T01:50:43.187Z,964.03
2023-02-11T01:50:53.174Z,964.04
2023-02-11T01:51:03.191Z,964.03
2023-02-11T01:51:13.188Z,964.02
2023-02-11T01:51:23.190Z,964.01
2023-02-11T01:51:33.196Z,964.01
2023-02-11T01:51:43.202Z,964.02
2023-02-11T01:51:53.193Z,964.02
2023-02-11T01:52:03.200Z,964.02
2023-02-11T01:52:13.197Z,964.02
2023-02-11T01:52:23.192Z,964.03
2023-02-11T01:52:33.194Z,964.04
2023-02-11T01:52:43.194Z,964.05
2023-02-11T01:52:53.179Z,964.06
2023-02-11T01:53:03.194Z,964.06
2023-02-11T01:53:13.195Z,964.07
2023-02-11T01:53:23.196Z,964.08
2023-02-11T01:53:33.195Z,964.08
2023-02-11T01:53:43.200Z,964.09
2023-02-11T01:53:53.200Z,964.08
2023-02-11T01:54:03.205Z,964.08
2023-02-11T01:54:13.202Z,964.07
2023-02-11T01:54:23.202Z,964.06
2023-02-11T01:54:33.203Z,964.06
2023-02-11T01:54:43.215Z,964.06
2023-02-11T01:54:53.205Z,964.07
2023-02-11T01:55:03.205Z,964.08
2023-02-11T01:55:13.203Z,964.09
2023-02-11T01:55:23.209Z,964.09
2023-02-11T01:55:33.206Z,964.07
2023-02-11T01:55:43.207Z,964.04
2023-02-11T01:55:53.222Z,964.03
2023-02-11T01:56:03.210Z,964.03
2023-02-11T01:56:13.209Z,964.03
2023-02-11T01:56:23.211Z,964.03
2023-02-11T01:56:33.212Z,964.03
2023-02-11T01:56:43.213Z,964.03
2023-02-11T01:56:53.214Z,964.03
2023-02-11T01:57:03.220Z,964.01
2023-02-11T01:57:13.217Z,964.01
2023-02-11T01:57:23.225Z,964.03
2023-02-11T01:57:33.221Z,964.04
2023-02-11T01:57:43.220Z,964.03
2023-02-11T01:57:53.220Z,964.02
2023-02-11T01:58:03.227Z,964.02
2023-02-11T01:58:13.220Z,964.03
2023-02-11T01:58:23.222Z,964.02
2023-02-11T01:58:33.224Z,964.01
2023-02-11T01:58:43.223Z,964.00
2023-02-11T01:58:53.244Z,963.99
2023-02-11T01:59:03.228Z,963.99
2023-02-11T01:59:13.234Z,964.00
2023-02-11T01:59:23.225Z,964.01
2023-02-11T01:59:33.229Z,964.02
2023-02-11T01:59:43.265Z,964.03
2023-02-11T01:59:53.227Z,964.03
2023-02-11T02:00:03.244Z,964.03
2023-02-11T02:00:13.249Z,964.02
2023-02-11T02:00:23.234Z,964.02
2023-02-11T02:00:33.237Z,964.02
2023-02-11T02:00:43.234Z,964.02
2023-02-11T02:00:53.232Z,964.02
2023-02-11T02:01:03.238Z,964.03
2023-02-11T02:01:13.263Z,964.05
2023-02-11T02:01:23.285Z,964.06
2023-02-11T02:01:33.268Z,964.06
2023-02-11T02:01:43.345Z,964.06
2023-02-11T02:01:53.331Z,964.05
2023-02-11T02:02:03.237Z,964.06
2023-02-11T02:02:13.238Z,964.06
2023-02-11T02:02:23.237Z,964.05
2023-02-11T02:02:33.287Z,964.04
2023-02-11T02:02:43.241Z,964.00
2023-02-11T02:02:53.245Z,963.98
2023-02-11T02:03:03.241Z,963.96
2023-02-11T02:03:13.283Z,963.95
2023-02-11T02:03:23.267Z,963.94
2023-02-11T02:03:33.272Z,963.93
2023-02-11T02:03:43.310Z,963.93
2023-02-11T02:03:53.318Z,963.91
2023-02-11T02:04:03.312Z,963.92
2023-02-11T02:04:13.251Z,963.93
2023-02-11T02:04:23.249Z,963.93
2023-02-11T02:04:33.251Z,963.90
2023-02-11T02:04:43.250Z,963.88